EGFF/CWL METAR and TAF weather

Enter ICAO airport designator
Station Type Date Time Source
EGFF METAR 2020/09/18 07:20 UTC NOAA

EGFF 180720Z AUTO 06014KT 9999 NCD 12/09 Q1023


Station Type Date Time Source
EGFF Decoded METAR 2020/09/18 07:20 UTC NOAA

Cardiff-Wales Airport, United Kingdom (EGFF) 51-24N 003-21W 0M
Sep 18, 2020 - 03:20 AM EDT / 2020.09.18 0720 UTC
Wind: from the ENE (060 degrees) at 16 MPH (14 KT):0
Visibility: greater than 7 mile(s):0
Temperature: 53 F (12 C)
Dew Point: 48 F (9 C)
Relative Humidity: 81%
Pressure (altimeter): 30.21 in. Hg (1023 hPa)
ob: EGFF 180720Z AUTO 06014KT 9999 NCD 12/09 Q1023
cycle: 7

Station Type Date Time Source
EGFF TAF 2020/09/18 06:09 UTC NOAA

TAF EGFF 180500Z 1806/1906 06014KT CAVOK
TEMPO 1806/1906 07017G27KT

Example: see airport list